Wonnie, Kentucky
Current Conditions -  °F | °C
As of 12:53 PM on Saturday 25 Oct 2014 (Local Time) from KJKL Reporting Station
Overcast Overcast  
Wind Chill: 63°   Ceiling: 4200
Heat Index: 63°   Visibility: 10mi
Dew Point: 48°   Wind: 3mph
Humidity: 58%   Direction: NA
Pressure: 30.05"   Gusts: NA
Location:  37.7261°N, 83.0786°W
Report Text: KJKL 251653Z AUTO VRB03KT 10SM OVC042 17/09 A3005 RMK AO2 SLP172 T01720089
Loading
Personal Weather Stations






























Interactive Weather Map
Tropical Storm Tracking
New forecast layout! Learn more

10-Day Weather Forecast

Advertisements
Track Severe Weather on mobile